createdAt,value
2024-01-12T00:06:00.544Z,16.77
2024-01-12T00:16:10.138Z,14.15
2024-01-12T00:26:15.473Z,15.43
2024-01-12T00:36:18.538Z,15.63
2024-01-12T00:46:22.297Z,14.93
2024-01-12T00:56:24.143Z,15.10
2024-01-12T01:06:26.147Z,17.67
2024-01-12T01:16:28.000Z,15.20
2024-01-12T01:26:29.777Z,16.33
2024-01-12T01:36:34.658Z,15.05
2024-01-12T01:46:41.650Z,15.35
2024-01-12T01:56:43.557Z,15.25
2024-01-12T02:06:52.912Z,14.90
2024-01-12T02:16:55.758Z,15.63
2024-01-12T02:26:59.911Z,14.73
2024-01-12T02:37:01.817Z,14.93
2024-01-12T02:47:03.664Z,14.85
2024-01-12T02:57:05.715Z,15.60
2024-01-12T03:07:08.821Z,15.80
2024-01-12T03:17:13.083Z,15.30
2024-01-12T03:27:20.736Z,14.50
2024-01-12T03:37:22.420Z,15.57
2024-01-12T03:47:24.180Z,14.63
2024-01-12T03:57:30.045Z,14.90
2024-01-12T04:07:31.767Z,13.60
2024-01-12T04:17:34.953Z,12.70
2024-01-12T04:27:36.644Z,12.63
2024-01-12T04:37:48.448Z,12.80
2024-01-12T04:47:51.143Z,12.85
2024-01-12T04:57:53.108Z,12.30
2024-01-12T05:07:57.309Z,11.35
2024-01-12T05:17:59.322Z,10.95
2024-01-12T05:28:01.617Z,10.15
2024-01-12T05:38:04.036Z,10.25
2024-01-12T05:48:13.596Z,9.65
2024-01-12T05:58:21.470Z,8.68
2024-01-12T06:08:24.866Z,8.10
2024-01-12T06:18:26.781Z,7.80
2024-01-12T06:28:31.020Z,7.18
2024-01-12T06:48:37.975Z,7.25
2024-01-12T06:58:42.719Z,7.63
2024-01-12T07:08:44.686Z,7.65
2024-01-12T07:19:00.640Z,7.70
2024-01-12T07:29:03.486Z,9.05
2024-01-12T07:39:05.934Z,7.63
2024-01-12T07:49:08.522Z,7.75
2024-01-12T07:59:12.791Z,8.15
2024-01-12T08:09:15.954Z,8.57
2024-01-12T08:19:21.308Z,8.40
2024-01-12T08:29:23.157Z,8.95
2024-01-12T08:39:25.042Z,9.73
2024-01-12T08:49:27.211Z,9.75
2024-01-12T08:59:29.819Z,10.52
2024-01-12T09:09:33.707Z,10.30
2024-01-12T09:19:37.098Z,10.35
2024-01-12T09:29:39.373Z,10.23
2024-01-12T09:39:41.436Z,9.30
2024-01-12T09:49:46.626Z,9.43
2024-01-12T09:59:51.766Z,9.80
2024-01-12T10:09:54.333Z,9.20
2024-01-12T10:19:57.266Z,9.20
2024-01-12T10:29:59.738Z,9.47
2024-01-12T10:40:07.689Z,9.35
2024-01-12T11:00:37.080Z,8.88
2024-01-12T11:10:59.474Z,8.88
2024-01-12T11:21:03.598Z,9.63
2024-01-12T11:31:10.713Z,8.82
2024-01-12T11:41:13.715Z,8.85
2024-01-12T11:51:26.162Z,7.87
2024-01-12T12:01:29.911Z,7.78
2024-01-12T12:21:33.935Z,7.82
2024-01-12T12:31:41.725Z,8.82
2024-01-12T12:41:45.225Z,8.73
2024-01-12T12:51:47.615Z,7.45
2024-01-12T13:01:51.586Z,8.15
2024-01-12T13:11:55.102Z,8.15
2024-01-12T13:21:57.011Z,6.60
2024-01-12T13:31:58.694Z,7.30
2024-01-12T13:42:06.036Z,7.95
2024-01-12T13:52:09.878Z,6.72
2024-01-12T14:12:24.880Z,7.40
2024-01-12T14:22:29.745Z,7.35
2024-01-12T14:32:34.053Z,6.45
2024-01-12T14:42:37.133Z,5.70
2024-01-12T14:52:40.022Z,6.70
2024-01-12T15:02:46.099Z,6.05
2024-01-12T15:12:48.128Z,6.50
2024-01-12T15:22:49.810Z,7.00
2024-01-12T15:32:53.062Z,5.35
2024-01-12T15:43:03.625Z,6.53
2024-01-12T15:53:05.701Z,6.97
2024-01-12T16:03:07.635Z,6.70
2024-01-12T16:13:09.455Z,6.22
2024-01-12T16:23:12.579Z,7.10
2024-01-12T16:33:14.769Z,6.63
2024-01-12T16:43:18.517Z,6.07
2024-01-12T16:53:22.107Z,6.50
2024-01-12T17:03:25.455Z,6.47
2024-01-12T17:13:27.164Z,6.67
2024-01-12T17:23:29.191Z,6.88
2024-01-12T17:33:33.169Z,7.68
2024-01-12T17:53:37.860Z,6.50
2024-01-12T18:03:39.512Z,4.93
2024-01-12T18:13:41.612Z,6.00
2024-01-12T18:23:44.354Z,5.70
2024-01-12T18:33:47.045Z,6.00
2024-01-12T18:43:50.024Z,6.43
2024-01-12T18:53:51.937Z,5.90
2024-01-12T19:03:54.234Z,5.45
2024-01-12T19:13:57.425Z,5.53
2024-01-12T19:24:00.250Z,5.60
2024-01-12T19:44:05.416Z,4.78
2024-01-12T19:54:07.644Z,5.72
2024-01-12T20:04:09.952Z,5.53
2024-01-12T20:14:11.894Z,4.68
2024-01-12T20:24:13.699Z,5.75
2024-01-12T20:34:15.727Z,5.85
2024-01-12T20:44:17.592Z,5.95
2024-01-12T20:54:22.354Z,6.25
2024-01-12T21:04:24.168Z,7.53
2024-01-12T21:14:29.561Z,7.28
2024-01-12T21:24:32.452Z,8.18
2024-01-12T21:34:38.440Z,8.38
2024-01-12T21:44:40.306Z,8.60
2024-01-12T21:54:43.089Z,9.20
2024-01-12T22:04:44.839Z,8.93
2024-01-12T22:14:47.555Z,9.10
2024-01-12T22:24:49.380Z,10.00
2024-01-12T22:34:51.139Z,10.90
2024-01-12T22:44:53.434Z,9.75
2024-01-12T22:54:55.687Z,10.35
2024-01-12T23:04:59.907Z,9.77
2024-01-12T23:15:02.011Z,11.02
2024-01-12T23:25:06.539Z,11.35
2024-01-12T23:35:08.687Z,11.13
2024-01-12T23:45:10.651Z,9.75
2024-01-12T23:55:12.476Z,9.90
